Time;durP1;ratioP1;P1;durP2;ratioP2;P2;SDS_P1;SDS_P2;PMS_P1;PMS_P2;Temp;Humidity;BMP_temperature;BMP_pressure;BME280_temperature;BME280_humidity;BME280_pressure;Samples;Min_cycle;Max_cycle;Signal;HPM_P1;HPM_P2
2022/01/04 03:47:14;;;;;;;9.18;3.00;;;10.60;90.70;;;;;;4920991;24;20047;-80
2022/01/04 03:49:40;;;;;;;5.35;2.55;;;10.60;90.70;;;;;;4783274;29;20039;-81
2022/01/04 03:52:06;;;;;;;8.45;2.92;;;10.60;90.70;;;;;;4797796;29;20031;-81
2022/01/04 03:54:32;;;;;;;8.02;3.28;;;10.70;90.80;;;;;;4767971;30;20031;-81
2022/01/04 03:56:58;;;;;;;10.63;2.58;;;10.70;90.80;;;;;;4782831;30;20064;-82
2022/01/04 03:59:23;;;;;;;7.60;2.58;;;10.70;90.80;;;;;;4782571;30;20069;-81
2022/01/04 04:01:49;;;;;;;9.48;2.70;;;10.70;90.80;;;;;;4767570;30;20050;-81
2022/01/04 04:04:16;;;;;;;7.75;2.85;;;10.70;90.90;;;;;;4782326;30;20084;-81
2022/01/04 04:06:42;;;;;;;4.90;2.70;;;10.70;91.00;;;;;;4767853;30;20039;-81
2022/01/04 04:09:08;;;;;;;8.38;3.05;;;10.70;91.00;;;;;;4779736;30;20359;-81
2022/01/04 04:11:34;;;;;;;5.38;2.72;;;10.60;91.00;;;;;;4782618;30;20047;-81
2022/01/04 04:14:00;;;;;;;7.05;2.70;;;10.60;91.20;;;;;;4779931;30;20065;-80
2022/01/04 04:16:25;;;;;;;5.78;3.20;;;10.60;91.40;;;;;;4782202;30;20034;-81
2022/01/04 04:18:51;;;;;;;7.85;3.10;;;10.60;91.50;;;;;;4764349;30;20032;-81
2022/01/04 04:21:17;;;;;;;5.38;3.03;;;10.60;91.60;;;;;;4767599;30;20044;-81
2022/01/04 04:23:43;;;;;;;8.57;2.40;;;10.50;91.50;;;;;;4797257;30;20136;-81
2022/01/04 04:26:08;;;;;;;6.25;2.88;;;10.60;91.40;;;;;;4791376;29;20035;-81
2022/01/04 04:28:34;;;;;;;5.85;2.25;;;10.60;91.40;;;;;;4785341;29;20027;-81
2022/01/04 04:31:02;;;;;;;4.45;2.30;;;10.60;91.20;;;;;;4767378;30;20039;-81
2022/01/04 04:33:27;;;;;;;7.13;2.50;;;10.60;91.30;;;;;;4781828;30;20631;-81
2022/01/04 04:35:53;;;;;;;8.23;2.53;;;10.50;91.30;;;;;;4778931;30;20102;-81
2022/01/04 04:38:19;;;;;;;5.47;2.53;;;10.50;91.30;;;;;;4776663;30;20054;-80
2022/01/04 04:40:45;;;;;;;5.78;2.63;;;10.50;91.30;;;;;;4779382;29;20102;-83
2022/01/04 04:43:11;;;;;;;5.35;2.65;;;10.40;91.80;;;;;;4766989;30;20035;-81
2022/01/04 04:45:36;;;;;;;8.57;2.80;;;10.40;91.40;;;;;;4778006;30;20119;-81
2022/01/04 04:48:02;;;;;;;9.93;2.53;;;10.40;91.40;;;;;;4749265;30;20260;-81
2022/01/04 04:50:29;;;;;;;7.90;2.85;;;10.40;91.40;;;;;;4753600;30;20371;-81
2022/01/04 04:52:57;;;;;;;4.82;2.50;;;10.50;91.60;;;;;;4764250;30;20063;-82
2022/01/04 04:55:23;;;;;;;3.53;2.10;;;10.50;91.10;;;;;;4779191;30;20095;-81
2022/01/04 04:57:48;;;;;;;2.60;1.60;;;10.40;91.10;;;;;;4778981;30;20055;-81
2022/01/04 05:00:15;;;;;;;7.00;2.58;;;10.40;91.10;;;;;;4763968;30;20089;-81
2022/01/04 05:02:41;;;;;;;5.50;2.00;;;10.40;91.30;;;;;;4778685;30;20027;-81
2022/01/04 05:05:08;;;;;;;7.80;2.33;;;10.40;91.30;;;;;;4778741;30;20036;-81
2022/01/04 05:07:34;;;;;;;4.63;1.88;;;10.40;91.50;;;;;;4778715;30;20215;-81
2022/01/04 05:10:04;;;;;;;5.63;2.45;;;10.40;91.70;;;;;;4778668;30;20051;-81
2022/01/04 05:12:30;;;;;;;3.75;2.30;;;10.40;92.00;;;;;;4763843;30;20059;-81
2022/01/04 05:14:56;;;;;;;5.60;2.10;;;10.30;92.10;;;;;;4778752;30;20335;-82
2022/01/04 05:17:22;;;;;;;4.78;2.28;;;10.30;92.20;;;;;;4763808;30;20040;-81
2022/01/04 05:19:48;;;;;;;7.72;2.53;;;10.30;92.50;;;;;;4778674;30;20036;-82
2022/01/04 05:22:13;;;;;;;5.03;2.42;;;10.30;92.60;;;;;;4762084;30;20036;-81
2022/01/04 05:24:39;;;;;;;7.03;2.58;;;10.30;92.50;;;;;;4763548;30;20327;-81
2022/01/04 05:27:05;;;;;;;7.70;2.70;;;10.30;92.70;;;;;;4763678;30;20358;-81
2022/01/04 05:29:31;;;;;;;6.38;2.08;;;10.30;92.40;;;;;;4778675;30;20649;-81
2022/01/04 05:31:57;;;;;;;9.65;2.10;;;10.30;92.20;;;;;;4793596;30;20088;-81
2022/01/04 05:34:25;;;;;;;6.60;2.10;;;10.30;92.30;;;;;;4749001;30;20051;-80
2022/01/04 05:36:51;;;;;;;6.30;2.60;;;10.20;92.50;;;;;;4761949;30;20256;-81
2022/01/04 05:39:17;;;;;;;6.25;2.20;;;10.30;92.50;;;;;;4755900;30;20234;-82
2022/01/04 05:41:43;;;;;;;7.70;3.72;;;10.20;92.60;;;;;;4775164;30;20395;-82
2022/01/04 05:44:09;;;;;;;4.72;2.38;;;10.30;92.80;;;;;;4785410;29;20062;-82
2022/01/04 05:46:35;;;;;;;6.38;2.67;;;10.20;93.00;;;;;;4781168;30;20067;-81
2022/01/04 05:49:02;;;;;;;4.53;2.38;;;10.10;93.20;;;;;;4782736;30;20205;-81
2022/01/04 05:51:29;;;;;;;6.35;2.25;;;10.10;93.50;;;;;;4778751;30;20098;-81
2022/01/04 05:53:55;;;;;;;8.23;3.13;;;10.00;93.70;;;;;;4768804;30;20096;-81
2022/01/04 05:56:21;;;;;;;6.22;2.92;;;10.00;93.80;;;;;;4781187;30;20055;-81
2022/01/04 05:58:46;;;;;;;7.55;2.80;;;10.00;93.80;;;;;;4766733;30;20042;-81
2022/01/04 06:01:12;;;;;;;6.78;2.75;;;10.00;93.70;;;;;;4763763;30;20044;-81
2022/01/04 06:03:38;;;;;;;6.50;3.35;;;9.90;93.90;;;;;;4779362;30;20032;-81
2022/01/04 06:06:04;;;;;;;7.60;3.08;;;9.90;93.90;;;;;;4767094;30;20027;-81
2022/01/04 06:08:34;;;;;;;7.00;3.67;;;9.90;93.90;;;;;;4752241;30;20039;-81
2022/01/04 06:11:01;;;;;;;13.45;3.30;;;9.80;93.60;;;;;;4774561;30;20042;-81
2022/01/04 06:16:11;;;;;;;11.30;4.32;;;9.70;93.70;;;;;;4776122;30;20165;-81
2022/01/04 06:18:37;;;;;;;10.45;4.38;;;9.80;93.80;;;;;;4759717;30;20036;-81
2022/01/04 06:21:05;;;;;;;10.87;3.80;;;9.80;93.70;;;;;;4781418;30;20047;-81
2022/01/04 06:23:31;;;;;;;7.60;3.28;;;9.70;93.40;;;;;;4769802;30;20290;-81
2022/01/04 06:25:57;;;;;;;7.95;3.70;;;9.70;93.40;;;;;;4781606;30;20050;-81
2022/01/04 06:28:23;;;;;;;9.48;3.65;;;9.70;93.50;;;;;;4766036;30;20039;-81
2022/01/04 06:30:52;;;;;;;11.88;4.40;;;9.60;93.30;;;;;;4781181;30;20243;-81
2022/01/04 06:33:22;;;;;;;10.45;5.15;;;9.60;93.30;;;;;;4766490;30;20051;-81
2022/01/04 06:35:48;;;;;;;13.50;5.38;;;9.60;93.50;;;;;;4780091;30;20040;-81
2022/01/04 06:38:14;;;;;;;8.23;4.67;;;9.70;93.50;;;;;;4766331;30;20403;-81
2022/01/04 06:40:40;;;;;;;11.25;5.30;;;9.70;93.80;;;;;;4756825;30;20305;-80
2022/01/04 06:43:06;;;;;;;13.23;6.13;;;9.70;93.50;;;;;;4766211;30;20362;-81
2022/01/04 06:45:32;;;;;;;12.95;6.28;;;9.70;93.50;;;;;;4751221;30;20023;-81
2022/01/04 06:47:57;;;;;;;22.27;6.88;;;9.70;93.60;;;;;;4774387;30;20115;-81
2022/01/04 06:50:24;;;;;;;14.27;7.82;;;9.70;93.60;;;;;;4779350;30;20269;-81
2022/01/04 06:52:50;;;;;;;13.83;7.47;;;9.70;93.90;;;;;;4779423;30;20034;-81
2022/01/04 06:55:16;;;;;;;13.85;6.85;;;9.70;94.00;;;;;;4763761;30;20286;-81
2022/01/04 06:57:42;;;;;;;13.30;7.73;;;9.70;94.20;;;;;;4776400;30;20031;-81
2022/01/04 07:00:10;;;;;;;14.18;7.85;;;9.70;94.10;;;;;;4764172;30;20378;-81
2022/01/04 07:02:35;;;;;;;18.27;7.70;;;9.70;94.30;;;;;;4788374;29;20040;-81
2022/01/04 07:05:02;;;;;;;24.60;8.77;;;9.70;94.20;;;;;;4762638;30;20078;-81
2022/01/04 07:07:28;;;;;;;14.63;8.25;;;9.70;94.30;;;;;;4777171;30;20448;-81
2022/01/04 07:09:54;;;;;;;15.05;8.27;;;9.60;94.40;;;;;;4762177;30;20035;-81
2022/01/04 07:12:20;;;;;;;15.05;9.05;;;9.60;94.50;;;;;;4769118;30;20058;-80
2022/01/04 07:14:46;;;;;;;20.20;9.35;;;9.60;94.80;;;;;;4759928;30;20036;-81
2022/01/04 07:17:12;;;;;;;16.30;9.60;;;9.60;94.90;;;;;;4779535;30;20035;-81
2022/01/04 07:19:39;;;;;;;19.30;9.23;;;9.60;95.10;;;;;;4776151;30;20359;-82
2022/01/04 07:22:05;;;;;;;17.45;9.35;;;9.60;95.30;;;;;;4777535;30;20088;-82
2022/01/04 07:24:31;;;;;;;14.85;8.85;;;9.60;95.30;;;;;;4793700;30;20024;-81
2022/01/04 07:26:56;;;;;;;19.00;9.30;;;9.60;95.60;;;;;;4763958;30;20122;-81
2022/01/04 07:29:22;;;;;;;18.65;9.27;;;9.60;95.50;;;;;;4775148;30;20054;-81
2022/01/04 07:31:48;;;;;;;16.38;9.40;;;9.60;95.50;;;;;;4779860;30;20077;-81
2022/01/04 07:34:14;;;;;;;14.93;8.80;;;9.60;95.40;;;;;;4748500;30;20320;-81
2022/01/04 07:36:40;;;;;;;17.65;9.73;;;9.70;95.40;;;;;;4779363;30;20043;-81
2022/01/04 07:39:06;;;;;;;15.27;9.18;;;9.70;95.40;;;;;;4751534;30;20027;-82
2022/01/04 07:41:33;;;;;;;14.55;8.95;;;9.60;95.10;;;;;;4759330;30;20074;-82
2022/01/04 07:43:59;;;;;;;18.63;9.45;;;9.50;95.10;;;;;;4775686;30;20339;-82
2022/01/04 07:46:25;;;;;;;21.75;11.20;;;9.60;95.20;;;;;;4774188;30;20052;-82
2022/01/04 07:48:52;;;;;;;20.40;10.85;;;9.60;95.30;;;;;;4742836;30;20035;-82
2022/01/04 07:51:18;;;;;;;21.67;11.90;;;9.70;95.30;;;;;;4741384;30;20062;-82
2022/01/04 07:53:44;;;;;;;20.37;11.07;;;9.70;95.10;;;;;;4760188;30;20035;-82
2022/01/04 07:56:10;;;;;;;19.60;11.38;;;9.70;95.10;;;;;;4761560;30;21252;-82
2022/01/04 07:58:35;;;;;;;21.95;12.32;;;9.70;95.10;;;;;;4765577;30;20043;-81
2022/01/04 08:01:01;;;;;;;24.75;11.82;;;9.70;95.30;;;;;;4755476;30;20048;-82
2022/01/04 08:03:27;;;;;;;29.77;12.27;;;9.60;95.40;;;;;;4774919;30;20028;-82
2022/01/04 08:05:53;;;;;;;20.63;11.98;;;9.70;95.30;;;;;;4759670;30;20031;-81
2022/01/04 08:08:18;;;;;;;22.90;13.32;;;9.70;95.50;;;;;;4759916;30;20102;-82
2022/01/04 08:10:46;;;;;;;24.73;14.23;;;9.70;95.50;;;;;;4777939;30;20343;-82
2022/01/04 08:13:12;;;;;;;26.15;13.50;;;9.80;95.50;;;;;;4776021;30;20254;-82
2022/01/04 08:15:39;;;;;;;28.80;15.57;;;9.80;95.70;;;;;;4781234;30;20370;-81
2022/01/04 08:18:04;;;;;;;29.38;15.93;;;9.90;95.60;;;;;;4754381;30;20039;-81
2022/01/04 08:20:30;;;;;;;29.95;17.17;;;9.90;95.50;;;;;;4780439;30;20043;-81
2022/01/04 08:22:57;;;;;;;26.60;15.57;;;9.90;95.50;;;;;;4777544;30;20044;-82
2022/01/04 08:25:23;;;;;;;27.55;15.45;;;9.90;95.50;;;;;;4778920;30;20036;-81
2022/01/04 08:27:49;;;;;;;28.02;16.95;;;10.00;95.60;;;;;;4782440;30;20382;-81
2022/01/04 08:30:15;;;;;;;28.42;16.00;;;10.00;95.60;;;;;;4764788;30;20085;-81
2022/01/04 08:32:41;;;;;;;30.17;15.85;;;10.10;95.70;;;;;;4764635;30;20048;-81
2022/01/04 08:35:08;;;;;;;30.80;17.52;;;10.20;95.50;;;;;;4776533;30;20044;-81
2022/01/04 08:37:34;;;;;;;29.75;18.10;;;10.20;95.50;;;;;;4776389;30;20095;-82
2022/01/04 08:40:00;;;;;;;34.70;16.30;;;10.30;95.50;;;;;;4762697;30;20278;-81
2022/01/04 08:42:26;;;;;;;30.63;17.17;;;10.30;95.50;;;;;;4777985;30;20332;-82
2022/01/04 08:44:55;;;;;;;30.70;17.27;;;10.30;95.30;;;;;;4778439;30;20115;-82
2022/01/04 08:47:22;;;;;;;30.48;18.00;;;10.30;95.40;;;;;;4769525;30;20348;-82
2022/01/04 08:49:47;;;;;;;29.42;18.10;;;10.20;95.50;;;;;;4790972;29;20054;-81
2022/01/04 08:52:13;;;;;;;30.38;17.98;;;10.20;95.70;;;;;;4771259;29;20364;-82
2022/01/04 08:54:39;;;;;;;32.22;18.33;;;10.20;95.90;;;;;;4785528;30;20223;-81
2022/01/04 08:57:06;;;;;;;28.25;17.92;;;10.20;96.00;;;;;;4779983;30;20664;-82
2022/01/04 08:59:33;;;;;;;33.88;19.08;;;10.20;96.00;;;;;;4778462;30;20036;-82
2022/01/04 09:01:59;;;;;;;33.03;18.35;;;10.20;96.00;;;;;;4756233;30;20343;-81
2022/01/04 09:04:26;;;;;;;34.88;20.40;;;10.20;95.90;;;;;;4782966;30;20105;-82
2022/01/04 09:06:52;;;;;;;36.80;20.00;;;10.20;96.00;;;;;;4778986;30;20100;-82
2022/01/04 09:09:17;;;;;;;39.25;20.95;;;10.30;96.30;;;;;;4760324;30;20043;-83
2022/01/04 09:11:45;;;;;;;36.15;20.77;;;10.30;96.20;;;;;;4772262;30;20064;-82
2022/01/04 09:14:41;;;;;;;27.75;18.50;;;10.20;96.80;;;;;;4774249;30;20059;-82
2022/01/04 09:19:54;;;;;;;30.05;19.73;;;10.20;96.60;;;;;;4783450;29;20044;-81
2022/01/04 09:22:20;;;;;;;32.78;19.67;;;10.30;96.70;;;;;;4780420;30;20042;-81
2022/01/04 09:24:46;;;;;;;37.67;19.30;;;10.30;97.00;;;;;;4759316;30;20040;-81
2022/01/04 09:27:12;;;;;;;35.53;19.80;;;10.30;97.20;;;;;;4751116;30;20028;-81
2022/01/04 09:29:38;;;;;;;35.67;19.27;;;10.20;97.10;;;;;;4778059;30;20359;-81
2022/01/04 09:32:05;;;;;;;31.48;19.15;;;10.10;97.50;;;;;;4763663;30;20046;-81
2022/01/04 09:34:31;;;;;;;34.53;20.35;;;10.10;97.80;;;;;;4778092;30;20036;-81
2022/01/04 09:36:57;;;;;;;36.13;21.23;;;10.20;97.70;;;;;;4778100;30;20047;-81
2022/01/04 09:39:24;;;;;;;34.17;20.67;;;10.20;97.80;;;;;;4777386;30;20378;-81
2022/01/04 09:41:52;;;;;;;34.92;21.20;;;10.10;97.90;;;;;;4765515;30;20036;-82
2022/01/04 09:44:18;;;;;;;49.08;23.20;;;10.10;98.00;;;;;;4793812;30;20076;-81
2022/01/04 09:46:44;;;;;;;38.58;21.52;;;10.10;98.30;;;;;;4747841;30;20064;-81
2022/01/04 09:49:11;;;;;;;43.65;24.98;;;10.10;98.30;;;;;;4794110;30;20273;-81
2022/01/04 09:51:40;;;;;;;42.63;24.48;;;10.10;98.30;;;;;;4786117;30;20036;-81
2022/01/04 09:54:07;;;;;;;37.97;22.80;;;10.10;98.60;;;;;;4781032;30;20113;-81
2022/01/04 09:56:33;;;;;;;40.78;23.02;;;10.10;98.50;;;;;;4776634;30;20028;-81
2022/01/04 09:58:59;;;;;;;36.72;22.38;;;10.10;98.50;;;;;;4781416;30;20299;-81
2022/01/04 10:01:27;;;;;;;35.53;21.92;;;10.20;98.50;;;;;;4768561;30;20060;-81
2022/01/04 10:03:54;;;;;;;36.28;21.17;;;10.30;98.00;;;;;;4787016;30;20027;-81
2022/01/04 10:06:20;;;;;;;33.88;21.50;;;10.40;97.70;;;;;;4751303;30;20230;-80
2022/01/04 10:09:13;;;;;;;33.20;21.13;;;10.40;97.70;;;;;;4766244;30;20040;-81
2022/01/04 10:11:42;;;;;;;32.58;21.27;;;10.30;97.90;;;;;;4712510;30;20049;-81
2022/01/04 10:14:28;;;;;;;38.42;19.73;;;10.40;97.80;;;;;;4713085;30;20056;-82
2022/01/04 10:16:58;;;;;;;32.13;20.27;;;10.50;98.10;;;;;;4698886;30;20048;-82
2022/01/04 10:19:45;;;;;;;32.63;21.10;;;10.60;97.50;;;;;;4725987;30;20362;-82
2022/01/04 10:22:16;;;;;;;;;;;10.60;97.40;;;;;;4712035;30;20041;-82
2022/01/04 10:24:44;;;;;;;31.63;20.15;;;10.60;97.50;;;;;;4721972;30;19918;-83
2022/01/04 10:27:28;;;;;;;31.38;19.77;;;10.60;97.40;;;;;;4696620;30;20033;-81
2022/01/04 10:30:28;;;;;;;32.53;19.48;;;10.70;97.40;;;;;;4706109;30;20072;-80
2022/01/04 10:33:07;;;;;;;34.85;19.38;;;10.70;97.10;;;;;;4673588;30;20045;-81
2022/01/04 10:35:33;;;;;;;31.80;19.50;;;10.80;96.90;;;;;;4655107;30;20050;-81
2022/01/04 10:38:13;;;;;;;29.50;19.15;;;10.80;97.10;;;;;;4660495;30;20125;-80
2022/01/04 10:40:42;;;;;;;28.75;17.98;;;10.80;96.70;;;;;;4659705;30;20361;-80
2022/01/04 10:43:17;;;;;;;35.47;20.25;;;10.90;96.90;;;;;;4660950;30;20142;-81
2022/01/04 10:45:45;;;;;;;32.03;19.73;;;10.90;96.80;;;;;;4662224;30;20085;-81
2022/01/04 10:48:12;;;;;;;27.67;16.70;;;10.90;96.80;;;;;;4685331;30;20142;-82
2022/01/04 10:50:39;;;;;;;29.90;18.38;;;11.00;97.00;;;;;;4726754;30;20049;-81
2022/01/04 10:53:12;;;;;;;31.58;19.45;;;11.00;96.70;;;;;;4727522;30;20040;-81
2022/01/04 10:55:38;;;;;;;35.15;18.95;;;11.10;96.60;;;;;;4703248;30;20037;-81
2022/01/04 10:58:04;;;;;;;28.65;16.55;;;11.10;96.70;;;;;;4707527;30;20140;-81
2022/01/04 11:00:31;;;;;;;28.08;18.13;;;11.20;96.50;;;;;;4728855;30;20045;-81
2022/01/04 11:03:00;;;;;;;25.60;15.57;;;11.20;96.40;;;;;;4714578;30;20053;-81
2022/01/04 11:05:26;;;;;;;22.98;15.05;;;11.20;96.50;;;;;;4729040;30;20283;-82
2022/01/04 11:08:03;;;;;;;23.05;15.50;;;11.20;96.10;;;;;;4728736;30;20052;-81
2022/01/04 11:10:31;;;;;;;;;;;11.10;96.20;;;;;;4771180;30;20048;-81
2022/01/04 11:12:58;;;;;;;29.75;16.33;;;11.10;96.70;;;;;;4779100;30;19909;-80
2022/01/04 11:15:25;;;;;;;26.58;16.50;;;11.10;96.40;;;;;;4779486;30;20028;-81
2022/01/04 11:17:51;;;;;;;25.70;14.80;;;11.10;96.30;;;;;;4776866;30;20040;-80
2022/01/04 11:20:17;;;;;;;25.65;15.70;;;11.10;96.40;;;;;;4775639;30;20212;-80
2022/01/04 11:22:48;;;;;;;25.63;14.65;;;11.20;96.30;;;;;;4761408;30;20039;-80
2022/01/04 11:25:16;;;;;;;23.98;14.50;;;11.20;96.40;;;;;;4776619;30;20043;-80
2022/01/04 11:27:43;;;;;;;23.98;14.90;;;11.20;96.20;;;;;;4762734;30;20032;-80
2022/01/04 11:30:31;;;;;;;25.50;14.57;;;11.30;96.20;;;;;;4786999;30;20335;-81
2022/01/04 11:33:03;;;;;;;24.05;14.48;;;11.30;95.50;;;;;;4779105;30;20060;-82
2022/01/04 11:35:31;;;;;;;25.63;14.65;;;11.20;95.60;;;;;;4793699;30;20099;-82
2022/01/04 11:37:59;;;;;;;27.13;15.35;;;11.20;95.50;;;;;;4777919;30;20039;-82
2022/01/04 11:40:40;;;;;;;24.98;15.30;;;11.20;95.70;;;;;;4778161;30;20027;-82
2022/01/04 11:43:28;;;;;;;23.85;15.40;;;11.20;95.50;;;;;;4775147;30;20377;-82
2022/01/04 11:45:55;;;;;;;22.88;14.77;;;11.30;95.50;;;;;;4793580;30;20358;-81
2022/01/04 11:48:42;;;;;;;27.17;13.80;;;11.40;95.50;;;;;;4769881;30;20102;-82
2022/01/04 11:51:29;;;;;;;25.13;14.48;;;11.40;95.10;;;;;;4777556;30;20052;-81
2022/01/04 11:54:22;;;;;;;24.80;15.93;;;11.30;94.80;;;;;;4787461;30;20039;-81
2022/01/04 11:57:09;;;;;;;23.08;15.10;;;11.30;95.10;;;;;;4774556;30;20036;-81
2022/01/04 11:59:56;;;;;;;26.67;14.80;;;11.10;95.20;;;;;;4775731;30;20351;-81
2022/01/04 12:02:37;;;;;;;28.00;15.00;;;11.10;95.00;;;;;;4778881;30;20039;-82
2022/01/04 12:05:26;;;;;;;26.40;14.68;;;11.00;95.10;;;;;;4769131;30;20039;-81
2022/01/04 12:07:53;;;;;;;27.52;15.52;;;10.90;95.20;;;;;;4726168;30;20037;-81
2022/01/04 12:10:21;;;;;;;25.55;15.45;;;10.70;95.60;;;;;;4710206;30;20080;-81
2022/01/04 12:13:05;;;;;;;27.23;15.38;;;10.70;96.00;;;;;;4729087;30;20466;-80
2022/01/04 12:15:33;;;;;;;29.45;15.82;;;10.60;96.20;;;;;;4741963;30;20299;-81
2022/01/04 12:18:07;;;;;;;29.27;15.80;;;10.60;96.50;;;;;;4727188;30;20059;-80
2022/01/04 12:20:44;;;;;;;24.23;15.05;;;10.60;96.80;;;;;;4711348;30;20048;-82
2022/01/04 12:23:37;;;;;;;21.17;14.15;;;10.60;96.80;;;;;;4727967;30;20036;-81
2022/01/04 12:26:05;;;;;;;27.85;15.52;;;10.60;96.90;;;;;;4710537;30;20115;-81
2022/01/04 12:28:36;;;;;;;33.25;15.13;;;10.60;97.00;;;;;;4719050;30;20319;-82
2022/01/04 12:31:17;;;;;;;24.77;14.73;;;10.70;97.00;;;;;;4713091;30;20051;-82
2022/01/04 12:34:04;;;;;;;25.17;14.80;;;10.70;96.80;;;;;;4720318;30;20045;-82
2022/01/04 12:36:41;;;;;;;21.75;14.50;;;10.60;96.70;;;;;;4712681;30;20044;-82
2022/01/04 12:39:08;;;;;;;;;;;10.60;96.90;;;;;;4727900;30;20124;-82
2022/01/04 12:41:37;;;;;;;33.35;16.33;;;10.40;97.20;;;;;;4716093;30;19914;-82
2022/01/04 12:44:05;;;;;;;28.45;16.10;;;10.40;97.20;;;;;;4733770;30;20098;-82
2022/01/04 12:46:34;;;;;;;26.95;16.15;;;10.50;97.30;;;;;;4779466;30;20047;-83
2022/01/04 12:49:03;;;;;;;32.70;16.55;;;10.50;97.30;;;;;;4777695;30;20331;-83
2022/01/04 12:51:47;;;;;;;28.60;17.52;;;10.40;97.40;;;;;;4767402;30;20325;-83
2022/01/04 12:54:35;;;;;;;29.00;18.45;;;10.40;97.60;;;;;;4772620;30;20059;-81
2022/01/04 12:57:04;;;;;;;31.77;17.65;;;10.40;97.70;;;;;;4792693;30;20031;-82
2022/01/04 12:59:38;;;;;;;24.85;16.02;;;10.40;97.70;;;;;;4778029;30;20055;-81
2022/01/04 13:02:28;;;;;;;28.52;16.33;;;10.40;97.80;;;;;;4773791;30;20067;-80
2022/01/04 13:04:59;;;;;;;25.52;15.70;;;10.40;97.80;;;;;;4777972;30;20040;-83
2022/01/04 13:07:32;;;;;;;25.67;15.50;;;10.40;98.00;;;;;;4775710;30;20039;-82
2022/01/04 13:10:15;;;;;;;32.72;17.10;;;10.40;98.00;;;;;;4776682;30;20044;-81
2022/01/04 13:12:47;;;;;;;29.95;18.08;;;10.50;97.90;;;;;;4782258;29;20043;-82
2022/01/04 13:15:16;;;;;;;29.63;17.80;;;10.50;98.00;;;;;;4792126;29;20107;-82
2022/01/04 13:17:44;;;;;;;30.55;18.35;;;10.50;98.00;;;;;;4762295;30;20099;-83
2022/01/04 13:20:10;;;;;;;28.77;16.40;;;10.60;98.00;;;;;;4764597;30;20289;-82
2022/01/04 13:22:37;;;;;;;26.63;17.27;;;10.70;97.80;;;;;;4750124;30;20035;-83
2022/01/04 13:25:05;;;;;;;30.92;17.48;;;10.70;97.70;;;;;;4778878;30;20255;-81
2022/01/04 13:27:41;;;;;;;28.35;16.70;;;10.70;97.50;;;;;;4763633;30;20047;-80
2022/01/04 13:30:18;;;;;;;31.30;16.80;;;10.70;97.40;;;;;;4777346;30;20031;-81
2022/01/04 13:32:48;;;;;;;29.55;16.92;;;10.80;97.50;;;;;;4766064;30;20036;-82
2022/01/04 13:35:21;;;;;;;25.80;16.73;;;10.80;97.30;;;;;;4791901;29;20066;-81
2022/01/04 13:37:53;;;;;;;33.45;16.67;;;10.80;97.30;;;;;;4756227;30;20038;-82
2022/01/04 13:40:21;;;;;;;31.88;16.67;;;10.80;97.30;;;;;;4772691;30;20052;-81
2022/01/04 13:42:55;;;;;;;25.27;15.93;;;10.80;97.40;;;;;;4764182;30;20609;-81
2022/01/04 13:45:21;;;;;;;24.58;14.95;;;10.80;97.20;;;;;;4771437;30;20063;-82
2022/01/04 13:47:51;;;;;;;25.67;15.60;;;10.80;97.10;;;;;;4762586;30;20052;-83
2022/01/04 13:50:45;;;;;;;28.90;16.15;;;10.80;97.00;;;;;;4777743;30;20036;-82
2022/01/04 13:53:12;;;;;;;26.45;15.52;;;10.90;96.90;;;;;;4741497;30;20339;-82
2022/01/04 13:56:01;;;;;;;27.67;14.43;;;10.90;96.90;;;;;;4740832;30;20049;-82
2022/01/04 13:58:45;;;;;;;24.92;14.18;;;10.90;96.70;;;;;;4739702;30;20079;-81
2022/01/04 14:01:23;;;;;;;22.70;14.70;;;11.00;96.60;;;;;;4731674;30;20098;-82
2022/01/04 14:03:57;;;;;;;29.25;15.98;;;11.00;96.50;;;;;;4743059;30;20032;-80
2022/01/04 14:06:26;;;;;;;26.38;15.02;;;11.10;96.30;;;;;;4726978;30;20048;-82
2022/01/04 14:08:53;;;;;;;27.27;16.70;;;11.00;96.30;;;;;;4746713;30;20035;-83
2022/01/04 14:11:23;;;;;;;;;;;11.00;96.20;;;;;;4747614;30;20383;-83
2022/01/04 14:13:50;;;;;;;27.65;17.05;;;11.10;96.20;;;;;;4745126;30;19922;-85
2022/01/04 14:16:17;;;;;;;22.38;14.35;;;11.10;96.20;;;;;;4746592;30;20052;-83
2022/01/04 14:19:02;;;;;;;;;;;11.00;96.00;;;;;;4748103;30;20052;-81
2022/01/04 14:21:34;;;;;;;31.15;16.90;;;11.00;96.10;;;;;;4762493;30;20202;-83
2022/01/04 14:24:02;;;;;;;33.97;17.20;;;10.90;96.40;;;;;;4748030;30;20040;-83
2022/01/04 14:26:27;;;;;;;29.20;16.42;;;10.90;96.40;;;;;;4733807;30;20032;-83
2022/01/04 14:28:55;;;;;;;28.20;17.20;;;10.90;96.50;;;;;;4740070;30;20140;-82
2022/01/04 14:31:22;;;;;;;28.42;16.15;;;10.80;96.50;;;;;;4763831;30;20040;-82
2022/01/04 14:33:48;;;;;;;31.30;15.10;;;10.80;96.60;;;;;;4780623;30;20036;-81
2022/01/04 14:36:13;;;;;;;29.58;15.57;;;10.80;96.60;;;;;;4747971;30;20107;-82
2022/01/04 14:38:39;;;;;;;26.25;15.63;;;10.80;96.60;;;;;;4774008;30;20115;-83
2022/01/04 14:41:05;;;;;;;26.42;16.05;;;10.80;96.50;;;;;;4733280;30;20056;-83
2022/01/04 14:43:31;;;;;;;25.70;15.70;;;10.70;96.60;;;;;;4762837;29;20045;-83
2022/01/04 14:45:57;;;;;;;29.23;17.13;;;10.70;96.60;;;;;;4761361;30;20067;-82
2022/01/04 14:48:24;;;;;;;28.15;17.80;;;10.70;96.60;;;;;;4772815;30;20040;-82
2022/01/04 14:50:49;;;;;;;23.05;14.70;;;10.60;96.80;;;;;;4754277;30;20387;-82
2022/01/04 14:53:16;;;;;;;30.35;16.60;;;10.50;97.00;;;;;;4758453;30;20036;-81
2022/01/04 14:55:43;;;;;;;29.23;14.43;;;10.50;97.10;;;;;;4787970;30;20122;-81
2022/01/04 14:58:09;;;;;;;;;;;10.50;97.20;;;;;;4785405;30;20054;-82
2022/01/04 15:00:35;;;;;;;32.27;16.40;;;10.50;97.30;;;;;;4802620;29;19918;-82
2022/01/04 15:03:01;;;;;;;28.88;14.60;;;10.50;97.20;;;;;;4753724;30;20254;-82
2022/01/04 15:05:27;;;;;;;33.10;14.95;;;10.50;97.10;;;;;;4778770;30;20067;-83
2022/01/04 15:07:52;;;;;;;24.05;14.27;;;10.50;97.00;;;;;;4765054;30;20044;-82
2022/01/04 15:10:18;;;;;;;23.83;13.70;;;10.50;97.10;;;;;;4738759;30;20106;-82
2022/01/04 15:12:44;;;;;;;22.67;14.18;;;10.50;97.10;;;;;;4780272;30;20047;-82
2022/01/04 15:15:10;;;;;;;27.95;15.05;;;10.60;97.00;;;;;;4755312;30;20106;-82
2022/01/04 15:17:36;;;;;;;30.02;14.85;;;10.50;96.90;;;;;;4743039;30;20229;-83
2022/01/04 15:20:03;;;;;;;26.42;13.63;;;10.50;96.90;;;;;;4756137;30;20286;-82
2022/01/04 15:22:35;;;;;;;24.73;14.18;;;10.60;96.90;;;;;;4765604;30;20350;-82
2022/01/04 15:25:02;;;;;;;25.05;14.98;;;10.50;97.10;;;;;;4787993;30;20093;-82
2022/01/04 15:27:28;;;;;;;28.50;14.50;;;10.50;97.30;;;;;;4782064;30;20065;-82
2022/01/04 15:29:55;;;;;;;25.73;14.18;;;10.50;97.30;;;;;;4759504;30;20040;-82
2022/01/04 15:32:22;;;;;;;26.88;15.13;;;10.50;97.30;;;;;;4776628;30;20073;-81
2022/01/04 15:34:48;;;;;;;;;;;10.60;97.10;;;;;;4779415;30;20049;-81
2022/01/04 15:37:13;;;;;;;25.67;13.87;;;10.60;97.10;;;;;;4784063;30;20198;-81
2022/01/04 15:39:39;;;;;;;27.15;14.15;;;10.70;97.00;;;;;;4749771;30;20039;-82
2022/01/04 15:42:05;;;;;;;24.40;13.88;;;10.70;97.00;;;;;;4730292;30;20220;-83
2022/01/04 15:44:31;;;;;;;22.23;14.32;;;10.70;96.60;;;;;;4775017;30;20371;-83
2022/01/04 15:46:58;;;;;;;24.80;13.57;;;10.70;96.60;;;;;;4736337;30;20114;-83
2022/01/04 15:49:26;;;;;;;22.15;12.38;;;10.70;96.70;;;;;;4765904;30;20040;-83
2022/01/04 15:51:52;;;;;;;22.10;12.85;;;10.70;96.70;;;;;;4747942;30;20043;-83
2022/01/04 15:54:18;;;;;;;24.02;13.73;;;10.70;96.60;;;;;;4765396;30;20036;-84
2022/01/04 15:56:44;;;;;;;17.92;11.63;;;10.70;96.60;;;;;;4778787;30;20086;-83
2022/01/04 15:59:10;;;;;;;26.88;13.40;;;10.70;96.60;;;;;;4756429;30;20039;-83
2022/01/04 16:01:37;;;;;;;21.40;12.50;;;10.70;96.30;;;;;;4757592;30;20336;-83
2022/01/04 16:04:03;;;;;;;26.17;12.23;;;10.70;96.30;;;;;;4763028;30;20035;-82
2022/01/04 16:06:29;;;;;;;20.20;10.90;;;10.80;96.20;;;;;;4770975;30;20051;-83
2022/01/04 16:08:55;;;;;;;23.55;12.10;;;10.70;96.00;;;;;;4766441;30;20031;-83
2022/01/04 16:11:21;;;;;;;31.88;11.93;;;10.70;95.90;;;;;;4778610;30;20035;-83
2022/01/04 16:13:46;;;;;;;23.52;11.60;;;10.70;96.00;;;;;;4764152;30;20036;-82
2022/01/04 16:16:19;;;;;;;21.17;11.15;;;10.70;95.90;;;;;;4779965;30;20058;-82
2022/01/04 16:24:06;;;;;;;26.33;11.60;;;10.80;95.50;;;;;;4777316;30;20051;-82
2022/01/04 16:26:33;;;;;;;25.77;11.32;;;10.70;95.40;;;;;;4764335;30;20028;-82
2022/01/04 16:29:03;;;;;;;23.70;10.65;;;10.70;95.40;;;;;;4760132;30;20275;-83
2022/01/04 16:31:30;;;;;;;18.20;9.88;;;10.80;95.50;;;;;;4764192;30;20036;-83
2022/01/04 16:33:57;;;;;;;16.67;11.23;;;10.80;95.50;;;;;;4775367;30;20047;-83
2022/01/04 16:36:30;;;;;;;51.78;13.45;;;10.90;95.50;;;;;;4762672;30;20096;-83
2022/01/04 16:38:55;;;;;;;32.53;13.20;;;10.90;95.10;;;;;;4788535;29;20374;-84
2022/01/04 16:41:21;;;;;;;40.03;11.95;;;10.90;95.20;;;;;;4760039;30;20031;-83